Map

Track Data

SID SEASON NUMBER BASIN SUBBASIN NAME ISO_TIME NATURE LAT LON WMO_WIND WMO_PRES WMO_AGENCY TRACK_TYPE DIST2LAND LANDFALL IFLAG USA_AGENCY USA_ATCF_ID USA_LAT USA_LON USA_RECORD USA_STATUS USA_WIND USA_PRES USA_SSHS USA_R34_NE USA_R34_SE USA_R34_SW USA_R34_NW USA_R50_NE USA_R50_SE USA_R50_SW USA_R50_NW USA_R64_NE USA_R64_SE USA_R64_SW USA_R64_NW USA_POCI USA_ROCI USA_RMW USA_EYE TOKYO_LAT TOKYO_LON TOKYO_GRADE TOKYO_WIND TOKYO_PRES TOKYO_R50_DIR TOKYO_R50_LONG TOKYO_R50_SHORT TOKYO_R30_DIR TOKYO_R30_LONG TOKYO_R30_SHORT TOKYO_LAND CMA_LAT CMA_LON CMA_CAT CMA_WIND CMA_PRES HKO_LAT HKO_LON HKO_CAT HKO_WIND HKO_PRES NEWDELHI_LAT NEWDELHI_LON NEWDELHI_GRADE NEWDELHI_WIND NEWDELHI_PRES NEWDELHI_CI NEWDELHI_DP NEWDELHI_POCI REUNION_LAT REUNION_LON REUNION_TYPE REUNION_WIND REUNION_PRES REUNION_TNUM REUNION_CI REUNION_RMW REUNION_R34_NE REUNION_R34_SE REUNION_R34_SW REUNION_R34_NW REUNION_R50_NE REUNION_R50_SE REUNION_R50_SW REUNION_R50_NW REUNION_R64_NE REUNION_R64_SE REUNION_R64_SW REUNION_R64_NW BOM_LAT BOM_LON BOM_TYPE BOM_WIND BOM_PRES BOM_TNUM BOM_CI BOM_RMW BOM_R34_NE BOM_R34_SE BOM_R34_SW BOM_R34_NW BOM_R50_NE BOM_R50_SE BOM_R50_SW BOM_R50_NW BOM_R64_NE BOM_R64_SE BOM_R64_SW BOM_R64_NW BOM_ROCI BOM_POCI BOM_EYE BOM_POS_METHOD BOM_PRES_METHOD NADI_LAT NADI_LON NADI_CAT NADI_WIND NADI_PRES WELLINGTON_LAT WELLINGTON_LON WELLINGTON_WIND WELLINGTON_PRES DS824_LAT DS824_LON DS824_STAGE DS824_WIND DS824_PRES TD9636_LAT TD9636_LON TD9636_STAGE TD9636_WIND TD9636_PRES TD9635_LAT TD9635_LON TD9635_WIND TD9635_PRES TD9635_ROCI NEUMANN_LAT NEUMANN_LON NEUMANN_CLASS NEUMANN_WIND NEUMANN_PRES MLC_LAT MLC_LON MLC_CLASS MLC_WIND MLC_PRES USA_GUST BOM_GUST BOM_GUST_PER REUNION_GUST REUNION_GUST_PER USA_SEAHGT USA_SEARAD_NE USA_SEARAD_SE USA_SEARAD_SW USA_SEARAD_NW STORM_SPEED STORM_DIR
1977357S11184 1978 120 SP MM ANNE 1977-12-23 00:00:00 NR -11.0000 183.500 30 997 wellington main 490 483 ________O_____ -1 -11.0000 -176.500 30 997 9 213
1977357S11184 1978 120 SP MM ANNE 1977-12-23 03:00:00 NR -11.3814 183.250 main 484 484 ________P_____ -1 -11.3814 -176.750 30 997 9 213
1977357S11184 1978 120 SP MM ANNE 1977-12-23 06:00:00 NR -11.7602 183.000 main 494 494 ________P_____ -1 -11.7602 -177.000 30 997 9 213
1977357S11184 1978 120 SP MM ANNE 1977-12-23 09:00:00 NR -12.1339 182.750 main 502 488 ________P_____ -1 -12.1339 -177.250 30 997 4 189
1977357S11184 1978 120 SP MM ANNE 1977-12-23 12:00:00 TS -12.2000 182.929 30 997 wellington main 488 485 O_______OO__O_ jtwc_sh SH081978 -11.8000 -176.500 35 0 -12.5000 -177.500 30 997 -11.8000 183.500 TC 35 -11.8000 -176.500 TC 35 3 196
1977357S11184 1978 120 SP MM ANNE 1977-12-23 15:00:00 TS -12.4279 182.660 main 503 469 P_______PP__P_ SH081978 -12.1428 -177.067 37 0 -12.8555 -177.750 32 995 -12.1428 -177.067 TC 37 -12.1428 -177.067 TC 37 8 231
1977357S11184 1978 120 SP MM ANNE 1977-12-23 18:00:00 TS -12.7138 182.277 main 469 417 O_______PO__O_ jtwc_sh SH081978 -12.5000 -177.600 40 0 -13.1949 -178.000 35 993 -12.5000 182.400 TC 40 -12.5000 -177.600 TC 40 10 231
1977357S11184 1978 120 SP MM ANNE 1977-12-23 21:00:00 TS -13.0416 181.883 main 417 357 P_______PP__P_ SH081978 -12.8849 -178.073 40 0 -13.5118 -178.250 37 991 -12.8849 -178.073 TC 40 -12.8849 -178.073 TC 40 10 227
1977357S11184 1978 120 SP MM ANNE 1977-12-24 00:00:00 TS -13.4176 181.500 40 990 wellington main 357 297 O_______OOO_O_ jtwc_sh SH081978 -13.3000 -178.500 40 0 -13.8000 -178.500 40 990 -13.3000 181.500 TC 40 -13.3000 -178.500 2 35 -13.3000 -178.500 TC 40 11 224
1977357S11184 1978 120 SP MM ANNE 1977-12-24 03:00:00 TS -13.8197 181.107 main 297 243 P_______PPP_P_ SH081978 -13.7500 -178.930 42 0 -14.0539 -178.791 40 990 -13.7500 -178.930 TC 42 -13.7694 -178.877 2 -13.7500 -178.930 TC 42 11 222
1977357S11184 1978 120 SP MM ANNE 1977-12-24 06:00:00 TS -14.2202 180.758 main 243 190 O_______POP_O_ jtwc_sh SH081978 -14.2000 -179.300 45 0 -14.2802 -179.075 40 990 -14.2000 180.700 TC 45 -14.2207 -179.233 2 -14.2000 -179.300 TC 45 10 218
1977357S11184 1978 120 SP MM ANNE 1977-12-24 09:00:00 TS -14.6036 180.473 main 190 151 P_______PPP_P_ SH081978 -14.6299 -179.588 45 0 -14.4914 -179.322 40 990 -14.6299 -179.588 TC 45 -14.6367 -179.548 2 -14.6299 -179.588 TC 45 9 214
1977357S11184 1978 120 SP MM ANNE 1977-12-24 12:00:00 TS -14.9400 180.260 40 990 wellington main 151 113 O_______OOO_O_ jtwc_sh SH081978 -15.0000 -179.800 45 0 -14.7000 -179.500 40 990 -15.0000 180.200 TC 45 -15.0000 -179.800 2 -15.0000 -179.800 TC 45 7 211
1977357S11184 1978 120 SP MM ANNE 1977-12-24 15:00:00 TS -15.2084 180.096 main 113 90 P_______PPP_P_ SH081978 -15.2725 -179.988 45 0 -14.9248 -179.584 40 990 -15.2725 -179.988 TC 45 -15.3000 -179.972 2 -15.2725 -179.988 TC 45 6 206
1977357S11184 1978 120 SP MM ANNE 1977-12-24 18:00:00 TS -15.4404 180.006 main 90 56 O_______POP_O_ jtwc_sh SH081978 -15.5000 179.900 45 0 -15.1498 -179.598 40 990 -15.5000 179.900 TC 45 -15.5521 179.929 2 -15.5000 179.900 TC 45 5 192
1977357S11184 1978 120 SP MM ANNE 1977-12-24 21:00:00 TS -15.6806 179.988 main 56 35 P_______PPP_P_ SH081978 -15.7500 179.870 45 0 -15.3749 -179.562 40 990 -15.7500 179.870 TC 45 -15.7782 179.891 2 -15.7500 179.870 TC 45 5 179
1977357S11184 1978 120 SP MM ANNE 1977-12-25 00:00:00 TS -15.9200 180.020 40 990 wellington main 35 0 O_______OOO_O_ jtwc_sh SH081978 -16.0000 179.900 45 0 -15.6000 -179.500 40 990 -16.0000 179.900 TC 45 -16.0000 179.900 2 45 -16.0000 179.900 TC 45 5 173
1977357S11184 1978 120 SP MM ANNE 1977-12-25 03:00:00 TS -16.1682 180.051 main 21 21 P_______PPP_P_ SH081978 -16.2500 179.935 47 0 -15.8209 -179.463 43 987 -16.2500 179.935 TC 47 -16.2702 179.911 2 -16.2500 179.935 TC 47 5 170
1977357S11184 1978 120 SP MM ANNE 1977-12-25 06:00:00 TS -16.4160 180.113 main 30 30 O_______POP_O_ jtwc_sh SH081978 -16.5000 180.000 50 0 -16.0424 -179.402 47 985 -16.5000 180.000 TC 50 -16.5374 179.967 2 -16.5000 180.000 TC 50 5 164
1977357S11184 1978 120 SP MM ANNE 1977-12-25 09:00:00 TS -16.6697 180.201 main 33 31 P_______PPP_P_ SH081978 -16.7650 -179.915 50 0 -16.2677 -179.316 51 982 -16.7650 -179.915 TC 50 -16.7858 -179.935 2 -16.7650 -179.915 TC 50 5 158
1977357S11184 1978 120 SP MM ANNE 1977-12-25 12:00:00 TS -16.9000 180.320 55 980 wellington main 44 44 O_______OOO_O_ jtwc_sh SH081978 -17.0000 -179.800 50 0 -16.5000 -179.200 55 980 -17.0000 180.200 TC 50 -17.0000 -179.800 2 -17.0000 -179.800 TC 50 5 151
1977357S11184 1978 120 SP MM ANNE 1977-12-25 15:00:00 TS -17.0775 180.439 main 62 62 P_______PPP_P_ SH081978 -17.1725 -179.672 50 0 -16.7304 -179.086 55 980 -17.1725 -179.672 TC 50 -17.1399 -179.704 2 -17.1725 -179.672 TC 50 4 140
1977357S11184 1978 120 SP MM ANNE 1977-12-25 18:00:00 TS -17.2237 180.599 main 86 86 O_______POP_O_ jtwc_sh SH081978 -17.3000 -179.500 50 0 -16.9696 -178.939 55 980 -17.3000 180.500 TC 50 -17.2487 -179.564 2 -17.3000 -179.500 TC 50 4 129
1977357S11184 1978 120 SP MM ANNE 1977-12-25 21:00:00 TS -17.3473 180.792 main 110 110 P_______PPP_P_ SH081978 -17.3847 -179.317 50 0 -17.2240 -178.748 55 980 -17.3847 -179.317 TC 50 -17.3583 -179.341 2 -17.3847 -179.317 TC 50 6 120
1977357S11184 1978 120 SP MM ANNE 1977-12-26 00:00:00 TS -17.5000 181.100 55 980 wellington main 149 149 O_______OOO_O_ jtwc_sh SH081978 -17.5000 -179.000 50 0 -17.5000 -178.500 55 980 -17.5000 181.000 TC 50 -17.5000 -179.000 2 50 -17.5000 -179.000 TC 50 9 118
1977357S11184 1978 120 SP MM ANNE 1977-12-26 03:00:00 TS -17.7485 181.590 main 206 206 P_______PPP_P_ SH081978 -17.7276 -178.460 52 0 -17.8276 -178.211 55 980 -17.7276 -178.460 TC 52 -17.7319 -178.458 2 -17.7276 -178.460 TC 52 12 117
1977357S11184 1978 120 SP MM ANNE 1977-12-26 06:00:00 TS -18.0334 182.187 main 278 278 O_______POP_O_ jtwc_sh SH081978 -18.0000 -177.800 55 0 -18.1721 -177.863 55 980 -18.0000 182.200 TC 55 -17.9948 -177.804 2 -18.0000 -177.800 TC 55 13 116
1977357S11184 1978 120 SP MM ANNE 1977-12-26 09:00:00 TS -18.3123 182.816 main 350 350 P_______PPP_P_ SH081978 -18.2652 -177.113 55 0 -18.5055 -177.458 55 980 -18.2652 -177.113 TC 55 -18.2601 -177.123 2 -18.2652 -177.113 TC 55 13 115
1977357S11184 1978 120 SP MM ANNE 1977-12-26 12:00:00 TS -18.5600 183.400 55 980 wellington main 421 421 O_______OOO_O_ jtwc_sh SH081978 -18.5000 -176.500 55 0 -18.8000 -177.000 55 980 -18.5000 183.500 TC 55 -18.5000 -176.500 2 -18.5000 -176.500 TC 55 10 114
1977357S11184 1978 120 SP MM ANNE 1977-12-26 15:00:00 TS -18.7361 183.813 main 464 464 P_______PPP_P_ SH081978 -18.6646 -176.112 55 0 -19.0263 -176.504 55 980 -18.6646 -176.112 TC 55 -18.6607 -176.092 2 -18.6646 -176.112 TC 55 8 114
1977357S11184 1978 120 SP MM ANNE 1977-12-26 18:00:00 TS -18.8815 184.179 main 512 512 O_______POP_O_ jtwc_sh SH081978 -18.8000 -175.800 55 0 -19.2100 -175.959 55 980 -18.8000 184.200 TC 55 -18.7975 -175.748 2 -18.8000 -175.800 TC 55 8 111
1977357S11184 1978 120 SP MM ANNE 1977-12-26 21:00:00 TS -19.0207 184.580 main 554 554 P_______PPP_P_ SH081978 -18.9347 -175.437 52 0 -19.3637 -175.385 55 980 -18.9347 -175.437 TC 52 -18.9357 -175.405 2 -18.9347 -175.437 TC 52 9 110
1977357S11184 1978 120 SP MM ANNE 1977-12-27 00:00:00 TS -19.1800 185.040 55 980 wellington main 602 602 O_______OOO_O_ jtwc_sh SH081978 -19.1000 -175.000 50 0 -19.5000 -174.800 55 980 -19.1000 185.000 TC 50 -19.1000 -175.000 2 55 -19.1000 -175.000 TC 50 10 111
1977357S11184 1978 120 SP MM ANNE 1977-12-27 03:00:00 TS -19.3890 185.600 main 655 652 P_______PPP_P_ SH081978 -19.3350 -174.438 50 0 -19.6184 -174.239 55 980 -19.3350 -174.438 TC 50 -19.3216 -174.447 2 -19.3350 -174.438 TC 50 12 112
1977357S11184 1978 120 SP MM ANNE 1977-12-27 06:00:00 TS -19.6194 186.221 main 661 659 O_______POP_O_ jtwc_sh SH081978 -19.6000 -173.800 50 0 -19.7266 -173.671 55 980 -19.6000 186.200 TC 50 -19.5705 -173.825 2 -19.6000 -173.800 TC 50 13 111
1977357S11184 1978 120 SP MM ANNE 1977-12-27 09:00:00 TS -19.8461 186.858 main 673 673 P_______PPP_P_ SH081978 -19.8499 -173.150 47 0 -19.8465 -173.092 55 980 -19.8499 -173.150 TC 47 -19.8340 -173.166 2 -19.8499 -173.150 TC 47 13 111
1977357S11184 1978 120 SP MM ANNE 1977-12-27 12:00:00 TS -20.0800 187.500 55 980 wellington main 705 705 O_______OOO_O_ jtwc_sh SH081978 -20.1000 -172.500 45 0 -20.0000 -172.500 55 980 -20.1000 187.500 TC 45 -20.1000 -172.500 2 -20.1000 -172.500 TC 45 13 112
1977357S11184 1978 120 SP MM ANNE 1977-12-27 15:00:00 TS -20.3109 188.102 main 728 728 P_______PPP_P_ SH081978 -20.3496 -171.900 45 0 -20.1934 -171.889 51 982 -20.3496 -171.900 TC 45 -20.3121 -171.901 2 -20.3496 -171.900 TC 45 12 113
1977357S11184 1978 120 SP MM ANNE 1977-12-27 18:00:00 TS -20.5510 188.707 main 766 766 O_______POP_O_ jtwc_sh SH081978 -20.6000 -171.300 45 0 -20.4245 -171.264 47 985 -20.6000 188.700 TC 45 -20.5304 -171.299 2 -20.6000 -171.300 TC 45 13 113
1977357S11184 1978 120 SP MM ANNE 1977-12-27 21:00:00 TS -20.7917 189.336 main 799 799 P_______PPP_P_ SH081978 -20.8272 -170.672 42 0 -20.6933 -170.632 43 987 -20.8272 -170.672 TC 42 -20.7837 -170.672 2 -20.8272 -170.672 TC 42 13 114
1977357S11184 1978 120 SP MM ANNE 1977-12-28 00:00:00 TS -21.0800 190.000 40 990 wellington main 849 849 O_______OOO_O_ jtwc_sh SH081978 -21.1000 -170.000 40 0 -21.0000 -170.000 40 990 -21.1000 190.000 TC 40 -21.1000 -170.000 2 45 -21.1000 -170.000 TC 40 14 117
1977357S11184 1978 120 SP MM ANNE 1977-12-28 03:00:00 TS -21.4419 190.714 main 904 904 P_______PPP_P_ SH081978 -21.4547 -169.279 40 0 -21.3389 -169.355 40 990 -21.4547 -169.279 TC 40 -21.5068 -169.235 2 -21.4547 -169.279 TC 40 16 120
1977357S11184 1978 120 SP MM ANNE 1977-12-28 06:00:00 TS -21.8776 191.473 main 987 987 O_______POP_O_ jtwc_sh SH081978 -21.9000 -168.500 40 0 -21.7124 -168.713 40 990 -21.9000 191.500 TC 40 -21.9758 -168.423 2 -21.9000 -168.500 TC 40 17 123
1977357S11184 1978 120 SP MM ANNE 1977-12-28 09:00:00 TS -22.3784 192.277 main 1073 1073 P_______PPP_P_ SH081978 -22.4351 -167.643 40 0 -22.1046 -168.089 40 990 -22.4351 -167.643 TC 40 -22.4818 -167.600 2 -22.4351 -167.643 TC 40 18 125
1977357S11184 1978 120 SP MM ANNE 1977-12-28 12:00:00 TS -22.9000 193.060 40 990 wellington main 1161 1161 O_______OOO_O_ jtwc_sh SH081978 -23.0000 -166.800 40 0 -22.5000 -167.500 40 990 -23.0000 193.200 TC 40 -23.0000 -166.800 2 -23.0000 -166.800 TC 40 16 126
1977357S11184 1978 120 SP MM ANNE 1977-12-28 15:00:00 TS -23.3310 193.705 main 1230 1230 P_______PPP_P_ SH081978 -23.5069 -166.077 37 0 -22.7697 -167.057 37 991 -23.5069 -166.077 TC 37 -23.3648 -166.186 2 -23.5069 -166.077 TC 37 14 127
1977357S11184 1978 120 SP MM ANNE 1977-12-28 18:00:00 TS -23.7629 194.316 main 1310 1310 O_______POP_O_ jtwc_sh SH081978 -24.0000 -165.400 35 0 -23.0566 -166.636 35 993 -24.0000 194.600 TC 35 -23.7576 -165.585 2 -24.0000 -165.400 TC 35 14 128
1977357S11184 1978 120 SP MM ANNE 1977-12-28 21:00:00 TS -24.2011 194.929 main 1381 1381 P_______PPP_P_ SH081978 -24.4309 -164.772 35 0 -23.4404 -166.147 32 995 -24.4309 -164.772 TC 35 -24.2720 -164.893 2 -24.4309 -164.772 TC 35 16 129
1977357S11184 1978 120 SP MM ANNE 1977-12-29 00:00:00 TS -24.8000 195.700 30 997 wellington main 1482 1482 O_______OOO_O_ jtwc_sh SH081978 -25.0000 -164.000 35 0 -24.0000 -165.500 30 997 -25.0000 196.000 TC 35 -25.0000 -164.000 2 35 -25.0000 -164.000 TC 35 22 131
1977357S11184 1978 120 SP MM ANNE 1977-12-29 03:00:00 TS -25.6236 196.746 main 1614 1614 P_______PPP_P_ SH081978 -25.7908 -162.959 -1 -24.7422 -164.571 30 997 -25.7908 -162.959 TC -26.0031 -162.821 2 -25.7908 -162.959 TC 32 28 132
1977357S11184 1978 120 SP MM ANNE 1977-12-29 06:00:00 TS -26.6530 197.974 main 1790 1790 O_______POP_O_ jtwc_sh SH081978 -26.9000 -161.600 -1 -25.6668 -163.466 30 997 -26.9000 198.400 TC -27.2270 -161.384 2 -26.9000 -161.600 TC 30 32 134
1977357S11184 1978 120 SP MM ANNE 1977-12-29 09:00:00 TS -27.8630 199.335 main 1975 1975 P_______PPP_P_ SH081978 -28.3587 -159.911 -1 -26.7573 -162.253 30 997 -28.3587 -159.911 TC -28.5874 -159.753 2 -28.3587 -159.911 TC 30 32 136
1977357S11184 1978 120 SP MM ANNE 1977-12-29 12:00:00 TS -29.0000 200.500 30 997 wellington main 2144 2144 O_______OOO_O_ jtwc_sh SH081978 -30.0000 -158.000 -1 -28.0000 -161.000 30 997 -30.0000 202.000 TC -30.0000 -158.000 6 -30.0000 -158.000 TC 30 17 151
1977357S11184 1978 120 SP MM ANNE 1977-12-29 15:00:00 NR -29.3587 200.269 main 2166 2166 ________P_____ SH081978 -1 -29.3587 -159.731 30 997 TC 6 TC 21 153
1977357S11184 1978 120 SP MM ANNE 1977-12-29 18:00:00 NR -30.8547 201.566 main 2233 2233 ________P_____ -1 -30.8547 -158.434 30 997 6 38 144
1977357S11184 1978 120 SP MM ANNE 1977-12-29 21:00:00 NR -32.4227 202.833 main 2268 2268 ________P_____ -1 -32.4227 -157.167 30 997 6 38 147
1977357S11184 1978 120 SP MM ANNE 1977-12-30 00:00:00 NR -34.0000 204.000 30 997 wellington main 2313 2313 ________O_____ -1 -34.0000 -156.000 30 997 37 149
1977357S11184 1978 120 SP MM ANNE 1977-12-30 03:00:00 NR -35.5970 205.100 main 2361 2361 ________P_____ -1 -35.5970 -154.900 30 997 36 152
1977357S11184 1978 120 SP MM ANNE 1977-12-30 06:00:00 NR -37.1829 206.077 main 2413 2411 ________P_____ -1 -37.1829 -153.923 30 997 34 155
1977357S11184 1978 120 SP MM ANNE 1977-12-30 09:00:00 NR -38.6775 206.892 main 2458 2457 ________P_____ -1 -38.6775 -153.108 30 997 30 158
1977357S11184 1978 120 SP MM ANNE 1977-12-30 12:00:00 NR -40.0000 207.500 30 997 wellington main 2497 2496 ________O_____ -1 -40.0000 -152.500 30 997 26 163
1977357S11184 1978 120 SP MM ANNE 1977-12-30 15:00:00 NR -41.1502 207.882 main 2524 2523 ________P_____ -1 -41.1502 -152.118 30 997 22 169
1977357S11184 1978 120 SP MM ANNE 1977-12-30 18:00:00 NR -42.1179 208.038 main 2529 2529 ________P_____ -1 -42.1179 -151.962 30 997 18 176
1977357S11184 1978 120 SP MM ANNE 1977-12-30 21:00:00 NR -42.9022 208.048 main 2529 2529 ________P_____ -1 -42.9022 -151.952 30 997 14 0
1977357S11184 1978 120 SP MM ANNE 1977-12-31 00:00:00 NR -43.5000 208.000 30 997 wellington main 2530 2530 ________O_____ -1 -43.5000 -152.000 30 997 10 183
1977357S11184 1978 120 SP MM ANNE 1977-12-31 03:00:00 NR -43.9164 207.969 main 2531 2531 ________P_____ -1 -43.9164 -152.031 30 997 7 0
1977357S11184 1978 120 SP MM ANNE 1977-12-31 06:00:00 NR -44.1901 207.965 main 2532 2532 ________P_____ -1 -44.1901 -152.035 30 997 5 178
1977357S11184 1978 120 SP MM ANNE 1977-12-31 09:00:00 NR -44.3689 207.978 main 2533 2533 ________P_____ -1 -44.3689 -152.022 30 997 3 0
1977357S11184 1978 120 SP MM ANNE 1977-12-31 12:00:00 NR -44.5000 208.000 30 997 wellington main 2533 ________O_____ -1 -44.5000 -152.000 30 997 3 178

Digital Typhoon Data and Search

About IBTrACS Database

This database is a web-friendly format of International Best Track Archive for Climate Stewardship (IBTrACS), a global best track data archive curated by NOAA dating back to 1842.

Updated: 2021-10-25